Adams Basin, New York
Current Conditions -  °F | °C
As of 8:54 PM on Friday 21 Nov 2014 (Local Time) from KROC Reporting Station
Light Snow Light Snow  
Wind Chill: 16°   Ceiling: 3700
Heat Index: 25°   Visibility: 9mi
Dew Point: 20°   Wind: 8mph
Humidity: 81%   Direction: 220°SW
Pressure: 30.43"   Gusts: NA
Location:  43.2°N, 77.85°W
Report Text: KROC 220154Z 22007KT 9SM -SN SCT023 OVC037 M04/M07 A3043 RMK AO2 SLP315 SCT V BKN P0000 T10391067
Loading
Personal Weather Stations






























Interactive Weather Map New forecast layout! Learn more

10-Day Weather Forecast

Advertisements
Track Severe Weather on mobile